sensor_id;sensor_type;location;lat;lon;timestamp;pressure;altitude;pressure_sealevel;temperature;humidity
18678;BME280;9469;51.114;13.914;2023-07-31T00:02:41;98500.59;;;17.04;99.48
18678;BME280;9469;51.114;13.914;2023-07-31T00:07:46;98512.03;;;17.17;99.41
18678;BME280;9469;51.114;13.914;2023-07-31T00:12:54;98506.47;;;17.10;99.06
18678;BME280;9469;51.114;13.914;2023-07-31T00:17:59;98511.53;;;16.96;99.52
18678;BME280;9469;51.114;13.914;2023-07-31T00:23:04;98494.50;;;16.92;99.06
18678;BME280;9469;51.114;13.914;2023-07-31T00:28:12;98499.81;;;16.88;99.61
18678;BME280;9469;51.114;13.914;2023-07-31T00:33:17;98495.97;;;16.89;98.69
18678;BME280;9469;51.114;13.914;2023-07-31T00:38:23;98501.19;;;16.98;98.07
18678;BME280;9469;51.114;13.914;2023-07-31T00:43:30;98499.56;;;16.93;98.03
18678;BME280;9469;51.114;13.914;2023-07-31T00:48:35;98496.75;;;16.90;98.49
18678;BME280;9469;51.114;13.914;2023-07-31T00:53:42;98495.34;;;16.80;98.00
18678;BME280;9469;51.114;13.914;2023-07-31T00:58:50;98479.84;;;16.74;97.86
18678;BME280;9469;51.114;13.914;2023-07-31T01:03:56;98486.81;;;16.90;97.86
18678;BME280;9469;51.114;13.914;2023-07-31T01:09:03;98479.72;;;16.82;98.39
18678;BME280;9469;51.114;13.914;2023-07-31T01:14:14;98482.09;;;16.72;97.83
18678;BME280;9469;51.114;13.914;2023-07-31T01:19:22;98468.97;;;16.82;97.60
18678;BME280;9469;51.114;13.914;2023-07-31T01:24:30;98469.13;;;16.89;97.01
18678;BME280;9469;51.114;13.914;2023-07-31T01:29:51;98465.06;;;16.80;96.77
18678;BME280;9469;51.114;13.914;2023-07-31T01:35:00;98461.75;;;16.71;96.75
18678;BME280;9469;51.114;13.914;2023-07-31T01:40:06;98452.75;;;16.79;96.74
18678;BME280;9469;51.114;13.914;2023-07-31T01:45:15;98454.91;;;16.73;96.89
18678;BME280;9469;51.114;13.914;2023-07-31T01:50:20;98457.06;;;16.68;97.37
18678;BME280;9469;51.114;13.914;2023-07-31T01:55:25;98454.50;;;16.71;96.85
18678;BME280;9469;51.114;13.914;2023-07-31T02:00:33;98444.69;;;16.79;96.19
18678;BME280;9469;51.114;13.914;2023-07-31T02:05:44;98449.69;;;16.80;95.53
18678;BME280;9469;51.114;13.914;2023-07-31T02:10:49;98444.50;;;16.87;95.06
18678;BME280;9469;51.114;13.914;2023-07-31T02:15:57;98440.59;;;16.85;93.90
18678;BME280;9469;51.114;13.914;2023-07-31T02:21:02;98436.44;;;17.03;93.73
18678;BME280;9469;51.114;13.914;2023-07-31T02:26:07;98431.16;;;17.06;92.53
18678;BME280;9469;51.114;13.914;2023-07-31T02:31:15;98443.78;;;17.21;91.98
18678;BME280;9469;51.114;13.914;2023-07-31T02:36:23;98444.22;;;17.08;92.28
18678;BME280;9469;51.114;13.914;2023-07-31T02:41:30;98437.81;;;17.12;92.31
18678;BME280;9469;51.114;13.914;2023-07-31T02:46:39;98438.34;;;17.18;91.38
18678;BME280;9469;51.114;13.914;2023-07-31T02:51:44;98424.31;;;17.09;91.56
18678;BME280;9469;51.114;13.914;2023-07-31T02:56:49;98429.16;;;17.03;91.93
18678;BME280;9469;51.114;13.914;2023-07-31T03:01:56;98439.56;;;17.05;92.32
18678;BME280;9469;51.114;13.914;2023-07-31T03:07:01;98439.81;;;17.15;92.76
18678;BME280;9469;51.114;13.914;2023-07-31T03:12:08;98436.09;;;17.04;91.86
18678;BME280;9469;51.114;13.914;2023-07-31T03:17:16;98435.88;;;17.29;91.65
18678;BME280;9469;51.114;13.914;2023-07-31T03:22:21;98420.22;;;17.15;91.85
18678;BME280;9469;51.114;13.914;2023-07-31T03:27:26;98429.56;;;17.21;92.18
18678;BME280;9469;51.114;13.914;2023-07-31T03:32:34;98430.69;;;17.20;91.82
18678;BME280;9469;51.114;13.914;2023-07-31T03:37:39;98425.94;;;17.13;92.43
18678;BME280;9469;51.114;13.914;2023-07-31T03:42:44;98434.03;;;16.98;94.17
18678;BME280;9469;51.114;13.914;2023-07-31T03:47:52;98423.53;;;16.93;95.11
18678;BME280;9469;51.114;13.914;2023-07-31T03:52:59;98421.81;;;17.00;95.61
18678;BME280;9469;51.114;13.914;2023-07-31T03:58:04;98425.88;;;16.94;97.49
18678;BME280;9469;51.114;13.914;2023-07-31T04:03:12;98437.84;;;16.97;99.88
18678;BME280;9469;51.114;13.914;2023-07-31T04:08:17;98428.56;;;16.94;100.00
18678;BME280;9469;51.114;13.914;2023-07-31T04:13:22;98436.25;;;16.80;100.00
18678;BME280;9469;51.114;13.914;2023-07-31T04:18:32;98429.97;;;16.73;100.00
18678;BME280;9469;51.114;13.914;2023-07-31T04:23:39;98435.22;;;16.69;100.00
18678;BME280;9469;51.114;13.914;2023-07-31T04:28:44;98419.03;;;16.66;100.00
18678;BME280;9469;51.114;13.914;2023-07-31T04:33:53;98425.97;;;16.67;100.00
18678;BME280;9469;51.114;13.914;2023-07-31T04:39:04;98417.56;;;16.53;100.00
18678;BME280;9469;51.114;13.914;2023-07-31T04:44:09;98413.25;;;16.64;100.00
18678;BME280;9469;51.114;13.914;2023-07-31T04:49:19;98410.41;;;16.44;100.00
18678;BME280;9469;51.114;13.914;2023-07-31T04:54:24;98401.28;;;16.61;100.00
18678;BME280;9469;51.114;13.914;2023-07-31T04:59:29;98390.09;;;16.59;100.00
18678;BME280;9469;51.114;13.914;2023-07-31T05:04:41;98382.75;;;16.56;100.00
18678;BME280;9469;51.114;13.914;2023-07-31T05:09:46;98390.50;;;16.45;100.00
18678;BME280;9469;51.114;13.914;2023-07-31T05:14:52;98381.41;;;16.50;100.00
18678;BME280;9469;51.114;13.914;2023-07-31T05:20:00;98388.34;;;16.51;100.00
18678;BME280;9469;51.114;13.914;2023-07-31T05:25:06;98373.03;;;16.52;100.00
18678;BME280;9469;51.114;13.914;2023-07-31T05:30:13;98370.75;;;16.85;100.00
18678;BME280;9469;51.114;13.914;2023-07-31T05:35:23;98384.72;;;16.90;100.00
18678;BME280;9469;51.114;13.914;2023-07-31T05:40:28;98369.47;;;16.79;100.00
18678;BME280;9469;51.114;13.914;2023-07-31T05:45:33;98371.56;;;16.70;100.00
18678;BME280;9469;51.114;13.914;2023-07-31T05:50:41;98361.59;;;16.70;100.00
18678;BME280;9469;51.114;13.914;2023-07-31T05:55:48;98359.50;;;16.79;100.00
18678;BME280;9469;51.114;13.914;2023-07-31T06:01:00;98367.34;;;16.69;100.00
18678;BME280;9469;51.114;13.914;2023-07-31T06:06:09;98352.56;;;16.78;100.00
18678;BME280;9469;51.114;13.914;2023-07-31T06:11:15;98360.78;;;16.85;100.00
18678;BME280;9469;51.114;13.914;2023-07-31T06:16:21;98357.41;;;16.88;100.00
18678;BME280;9469;51.114;13.914;2023-07-31T06:21:37;98355.34;;;16.82;100.00
18678;BME280;9469;51.114;13.914;2023-07-31T06:26:45;98356.16;;;16.82;100.00
18678;BME280;9469;51.114;13.914;2023-07-31T06:31:52;98361.53;;;16.67;100.00
18678;BME280;9469;51.114;13.914;2023-07-31T06:37:03;98367.56;;;16.79;100.00
18678;BME280;9469;51.114;13.914;2023-07-31T06:42:10;98365.44;;;17.04;100.00
18678;BME280;9469;51.114;13.914;2023-07-31T06:47:16;98373.72;;;16.95;100.00
18678;BME280;9469;51.114;13.914;2023-07-31T06:52:24;98374.75;;;16.91;100.00
18678;BME280;9469;51.114;13.914;2023-07-31T06:57:32;98366.16;;;16.85;100.00
18678;BME280;9469;51.114;13.914;2023-07-31T07:02:37;98368.66;;;16.94;100.00
18678;BME280;9469;51.114;13.914;2023-07-31T07:07:45;98362.31;;;17.17;100.00
18678;BME280;9469;51.114;13.914;2023-07-31T07:12:51;98354.31;;;17.21;100.00
18678;BME280;9469;51.114;13.914;2023-07-31T07:17:59;98361.13;;;17.34;100.00
18678;BME280;9469;51.114;13.914;2023-07-31T07:23:09;98365.25;;;17.66;100.00
18678;BME280;9469;51.114;13.914;2023-07-31T07:28:16;98356.03;;;17.48;100.00
18678;BME280;9469;51.114;13.914;2023-07-31T07:33:22;98363.03;;;17.68;100.00
18678;BME280;9469;51.114;13.914;2023-07-31T07:38:31;98342.47;;;17.79;100.00
18678;BME280;9469;51.114;13.914;2023-07-31T07:43:36;98352.31;;;18.14;100.00
18678;BME280;9469;51.114;13.914;2023-07-31T07:48:41;98340.72;;;18.10;100.00
18678;BME280;9469;51.114;13.914;2023-07-31T07:53:51;98339.34;;;18.19;100.00
18678;BME280;9469;51.114;13.914;2023-07-31T07:58:56;98349.19;;;18.31;100.00
18678;BME280;9469;51.114;13.914;2023-07-31T08:04:01;98355.81;;;18.37;100.00
18678;BME280;9469;51.114;13.914;2023-07-31T08:09:16;98363.19;;;18.40;100.00
18678;BME280;9469;51.114;13.914;2023-07-31T08:14:22;98367.06;;;18.42;100.00
18678;BME280;9469;51.114;13.914;2023-07-31T08:19:27;98358.00;;;18.50;100.00
18678;BME280;9469;51.114;13.914;2023-07-31T08:24:35;98363.56;;;18.61;100.00
18678;BME280;9469;51.114;13.914;2023-07-31T08:29:40;98366.94;;;18.81;100.00
18678;BME280;9469;51.114;13.914;2023-07-31T08:34:46;98365.69;;;18.97;100.00
18678;BME280;9469;51.114;13.914;2023-07-31T08:39:53;98363.53;;;19.36;100.00
18678;BME280;9469;51.114;13.914;2023-07-31T08:45:01;98366.69;;;19.42;100.00
18678;BME280;9469;51.114;13.914;2023-07-31T08:50:12;98369.56;;;19.29;100.00
18678;BME280;9469;51.114;13.914;2023-07-31T08:55:20;98359.63;;;19.33;100.00
18678;BME280;9469;51.114;13.914;2023-07-31T09:00:29;98346.09;;;19.30;98.61
18678;BME280;9469;51.114;13.914;2023-07-31T09:05:39;98360.66;;;19.25;98.47
18678;BME280;9469;51.114;13.914;2023-07-31T09:10:51;98360.78;;;19.32;98.19
18678;BME280;9469;51.114;13.914;2023-07-31T09:15:58;98366.06;;;19.25;97.58
18678;BME280;9469;51.114;13.914;2023-07-31T09:21:05;98353.00;;;19.27;97.50
18678;BME280;9469;51.114;13.914;2023-07-31T09:26:28;98350.34;;;19.31;96.53
18678;BME280;9469;51.114;13.914;2023-07-31T09:31:39;98345.84;;;19.39;97.13
18678;BME280;9469;51.114;13.914;2023-07-31T09:36:49;98343.16;;;19.39;95.86
18678;BME280;9469;51.114;13.914;2023-07-31T09:41:58;98339.19;;;19.32;94.46
18678;BME280;9469;51.114;13.914;2023-07-31T09:47:03;98332.84;;;19.48;93.35
18678;BME280;9469;51.114;13.914;2023-07-31T09:52:13;98322.59;;;19.30;93.68
18678;BME280;9469;51.114;13.914;2023-07-31T09:57:23;98330.06;;;19.41;94.10
18678;BME280;9469;51.114;13.914;2023-07-31T10:02:31;98327.88;;;19.50;93.67
18678;BME280;9469;51.114;13.914;2023-07-31T10:07:38;98323.38;;;19.61;93.44
18678;BME280;9469;51.114;13.914;2023-07-31T10:12:49;98324.00;;;19.80;91.74
18678;BME280;9469;51.114;13.914;2023-07-31T10:17:56;98323.44;;;19.68;91.35
18678;BME280;9469;51.114;13.914;2023-07-31T10:23:07;98318.13;;;20.12;90.73
18678;BME280;9469;51.114;13.914;2023-07-31T10:28:16;98313.44;;;20.05;91.18
18678;BME280;9469;51.114;13.914;2023-07-31T10:33:22;98305.50;;;19.82;90.84
18678;BME280;9469;51.114;13.914;2023-07-31T10:38:30;98306.19;;;20.13;90.66
18678;BME280;9469;51.114;13.914;2023-07-31T10:43:45;98297.91;;;20.32;90.09
18678;BME280;9469;51.114;13.914;2023-07-31T10:49:00;98290.66;;;20.43;88.91
18678;BME280;9469;51.114;13.914;2023-07-31T10:54:16;98292.72;;;20.63;87.99
18678;BME280;9469;51.114;13.914;2023-07-31T10:59:34;98280.69;;;20.54;88.74
18678;BME280;9469;51.114;13.914;2023-07-31T11:04:42;98278.03;;;20.61;88.03
18678;BME280;9469;51.114;13.914;2023-07-31T11:09:47;98283.56;;;20.79;87.32
18678;BME280;9469;51.114;13.914;2023-07-31T11:14:56;98284.34;;;20.76;87.52
18678;BME280;9469;51.114;13.914;2023-07-31T11:20:02;98269.34;;;20.89;87.81
18678;BME280;9469;51.114;13.914;2023-07-31T11:25:11;98265.53;;;21.00;86.11
18678;BME280;9469;51.114;13.914;2023-07-31T11:30:19;98272.34;;;20.73;88.34
18678;BME280;9469;51.114;13.914;2023-07-31T11:35:25;98267.16;;;20.50;90.48
18678;BME280;9469;51.114;13.914;2023-07-31T11:40:44;98276.47;;;20.53;95.82
18678;BME280;9469;51.114;13.914;2023-07-31T11:46:02;98278.84;;;20.65;97.11
18678;BME280;9469;51.114;13.914;2023-07-31T11:51:10;98276.47;;;20.53;100.00
18678;BME280;9469;51.114;13.914;2023-07-31T11:56:18;98270.00;;;20.71;96.85
18678;BME280;9469;51.114;13.914;2023-07-31T12:01:29;98249.75;;;21.06;97.52
18678;BME280;9469;51.114;13.914;2023-07-31T12:06:41;98239.81;;;21.27;93.24
18678;BME280;9469;51.114;13.914;2023-07-31T12:11:47;98235.94;;;21.25;92.58
18678;BME280;9469;51.114;13.914;2023-07-31T12:16:58;98226.38;;;21.80;89.62
18678;BME280;9469;51.114;13.914;2023-07-31T12:22:11;98229.91;;;21.88;86.88
18678;BME280;9469;51.114;13.914;2023-07-31T12:27:32;98222.19;;;22.04;87.01
18678;BME280;9469;51.114;13.914;2023-07-31T12:32:40;98212.44;;;22.77;85.46
18678;BME280;9469;51.114;13.914;2023-07-31T12:37:48;98195.88;;;22.29;86.20
18678;BME280;9469;51.114;13.914;2023-07-31T12:42:53;98183.84;;;22.30;84.95
18678;BME280;9469;51.114;13.914;2023-07-31T12:48:01;98182.31;;;22.36;85.65
18678;BME280;9469;51.114;13.914;2023-07-31T12:53:14;98172.56;;;22.67;82.75
18678;BME280;9469;51.114;13.914;2023-07-31T12:58:23;98165.53;;;22.87;83.41
18678;BME280;9469;51.114;13.914;2023-07-31T13:03:34;98155.75;;;23.11;81.45
18678;BME280;9469;51.114;13.914;2023-07-31T13:08:40;98152.44;;;23.47;78.15
18678;BME280;9469;51.114;13.914;2023-07-31T13:13:45;98132.56;;;22.99;77.23
18678;BME280;9469;51.114;13.914;2023-07-31T13:18:57;98135.16;;;23.17;76.77
18678;BME280;9469;51.114;13.914;2023-07-31T13:24:04;98138.28;;;23.15;76.81
18678;BME280;9469;51.114;13.914;2023-07-31T13:29:10;98132.91;;;23.05;75.95
18678;BME280;9469;51.114;13.914;2023-07-31T13:34:18;98131.28;;;23.18;76.60
18678;BME280;9469;51.114;13.914;2023-07-31T13:39:23;98128.22;;;23.12;76.63
18678;BME280;9469;51.114;13.914;2023-07-31T13:44:31;98118.59;;;23.04;76.27
18678;BME280;9469;51.114;13.914;2023-07-31T13:49:39;98119.88;;;22.78;74.96
18678;BME280;9469;51.114;13.914;2023-07-31T13:54:47;98109.63;;;23.07;74.13
18678;BME280;9469;51.114;13.914;2023-07-31T13:59:54;98108.41;;;23.19;74.59
18678;BME280;9469;51.114;13.914;2023-07-31T14:05:02;98096.03;;;23.14;74.68
18678;BME280;9469;51.114;13.914;2023-07-31T14:10:10;98100.72;;;23.10;73.48
18678;BME280;9469;51.114;13.914;2023-07-31T14:15:15;98081.75;;;23.03;73.18
18678;BME280;9469;51.114;13.914;2023-07-31T14:20:23;98085.63;;;23.06;72.68
18678;BME280;9469;51.114;13.914;2023-07-31T14:25:29;98087.06;;;23.24;72.69
18678;BME280;9469;51.114;13.914;2023-07-31T14:30:34;98087.84;;;23.21;73.42
18678;BME280;9469;51.114;13.914;2023-07-31T14:35:42;98084.06;;;23.05;73.91
18678;BME280;9469;51.114;13.914;2023-07-31T14:40:47;98070.56;;;22.98;74.20
18678;BME280;9469;51.114;13.914;2023-07-31T14:45:52;98066.34;;;22.93;74.01
18678;BME280;9469;51.114;13.914;2023-07-31T14:51:03;98048.44;;;23.03;73.60
18678;BME280;9469;51.114;13.914;2023-07-31T14:56:09;98049.13;;;23.17;73.95
18678;BME280;9469;51.114;13.914;2023-07-31T15:01:16;98059.38;;;22.92;74.27
18678;BME280;9469;51.114;13.914;2023-07-31T15:06:27;98040.00;;;22.90;74.59
18678;BME280;9469;51.114;13.914;2023-07-31T15:11:32;98047.03;;;22.84;74.58
18678;BME280;9469;51.114;13.914;2023-07-31T15:16:37;98053.13;;;23.02;74.69
18678;BME280;9469;51.114;13.914;2023-07-31T15:21:45;98052.75;;;22.97;73.37
18678;BME280;9469;51.114;13.914;2023-07-31T15:26:50;98039.25;;;22.86;74.00
18678;BME280;9469;51.114;13.914;2023-07-31T15:31:56;98033.13;;;22.75;74.54
18678;BME280;9469;51.114;13.914;2023-07-31T15:37:04;98050.97;;;22.69;75.75
18678;BME280;9469;51.114;13.914;2023-07-31T15:42:09;98042.50;;;22.63;75.17
18678;BME280;9469;51.114;13.914;2023-07-31T15:47:16;98048.66;;;22.64;75.57
18678;BME280;9469;51.114;13.914;2023-07-31T15:52:24;98035.88;;;22.68;75.96
18678;BME280;9469;51.114;13.914;2023-07-31T15:57:29;98030.84;;;22.59;76.94
18678;BME280;9469;51.114;13.914;2023-07-31T16:02:34;98038.66;;;22.47;77.06
18678;BME280;9469;51.114;13.914;2023-07-31T16:07:42;98030.19;;;22.38;77.37
18678;BME280;9469;51.114;13.914;2023-07-31T16:12:47;98027.91;;;22.26;77.62
18678;BME280;9469;51.114;13.914;2023-07-31T16:17:53;98020.16;;;22.24;78.19
18678;BME280;9469;51.114;13.914;2023-07-31T16:23:01;98022.50;;;22.22;77.31
18678;BME280;9469;51.114;13.914;2023-07-31T16:28:08;98025.22;;;22.15;77.32
18678;BME280;9469;51.114;13.914;2023-07-31T16:33:13;98022.56;;;22.04;76.51
18678;BME280;9469;51.114;13.914;2023-07-31T16:38:24;98029.94;;;21.97;76.26
18678;BME280;9469;51.114;13.914;2023-07-31T16:43:29;98031.84;;;21.96;74.90
18678;BME280;9469;51.114;13.914;2023-07-31T16:48:34;98028.38;;;21.78;75.47
18678;BME280;9469;51.114;13.914;2023-07-31T16:53:44;98041.16;;;21.78;75.54
18678;BME280;9469;51.114;13.914;2023-07-31T16:58:51;98046.56;;;21.74;75.27
18678;BME280;9469;51.114;13.914;2023-07-31T17:03:56;98041.94;;;21.89;76.17
18678;BME280;9469;51.114;13.914;2023-07-31T17:09:04;98042.72;;;21.75;75.97
18678;BME280;9469;51.114;13.914;2023-07-31T17:14:10;98044.25;;;21.80;76.02
18678;BME280;9469;51.114;13.914;2023-07-31T17:19:17;98038.47;;;21.67;76.70
18678;BME280;9469;51.114;13.914;2023-07-31T17:24:25;98046.19;;;21.72;77.52
18678;BME280;9469;51.114;13.914;2023-07-31T17:29:30;98026.09;;;21.73;77.02
18678;BME280;9469;51.114;13.914;2023-07-31T17:34:36;98016.03;;;21.77;77.01
18678;BME280;9469;51.114;13.914;2023-07-31T17:39:44;98025.69;;;21.75;76.70
18678;BME280;9469;51.114;13.914;2023-07-31T17:44:50;98021.81;;;21.76;77.03
18678;BME280;9469;51.114;13.914;2023-07-31T17:49:57;98019.53;;;21.71;77.50
18678;BME280;9469;51.114;13.914;2023-07-31T17:55:06;98006.38;;;21.73;77.38
18678;BME280;9469;51.114;13.914;2023-07-31T18:00:12;98002.50;;;21.77;78.39
18678;BME280;9469;51.114;13.914;2023-07-31T18:05:18;97997.44;;;21.90;77.26
18678;BME280;9469;51.114;13.914;2023-07-31T18:10:27;97997.84;;;21.85;77.22
18678;BME280;9469;51.114;13.914;2023-07-31T18:15:32;97999.78;;;21.88;77.84
18678;BME280;9469;51.114;13.914;2023-07-31T18:20:37;97993.59;;;21.84;77.76
18678;BME280;9469;51.114;13.914;2023-07-31T18:25:46;97985.47;;;21.91;77.67
18678;BME280;9469;51.114;13.914;2023-07-31T18:30:56;97984.72;;;21.83;78.20
18678;BME280;9469;51.114;13.914;2023-07-31T18:36:05;97976.97;;;21.75;78.14
18678;BME280;9469;51.114;13.914;2023-07-31T18:41:13;97978.50;;;21.76;78.02
18678;BME280;9469;51.114;13.914;2023-07-31T18:46:18;97982.38;;;21.71;78.81
18678;BME280;9469;51.114;13.914;2023-07-31T18:51:24;97983.56;;;21.63;78.42
18678;BME280;9469;51.114;13.914;2023-07-31T18:56:32;97984.75;;;21.59;78.70
18678;BME280;9469;51.114;13.914;2023-07-31T19:01:38;97990.13;;;21.62;79.29
18678;BME280;9469;51.114;13.914;2023-07-31T19:06:46;97983.19;;;21.58;79.00
18678;BME280;9469;51.114;13.914;2023-07-31T19:11:54;97972.75;;;21.56;79.59
18678;BME280;9469;51.114;13.914;2023-07-31T19:16:59;97958.44;;;21.49;80.27
18678;BME280;9469;51.114;13.914;2023-07-31T19:22:04;97954.97;;;21.52;80.44
18678;BME280;9469;51.114;13.914;2023-07-31T19:27:13;97955.00;;;21.48;81.42
18678;BME280;9469;51.114;13.914;2023-07-31T19:32:18;97948.47;;;21.28;82.07
18678;BME280;9469;51.114;13.914;2023-07-31T19:37:23;97939.94;;;21.33;82.19
18678;BME280;9469;51.114;13.914;2023-07-31T19:42:31;97937.63;;;21.31;82.09
18678;BME280;9469;51.114;13.914;2023-07-31T19:47:41;97939.56;;;21.31;82.49
18678;BME280;9469;51.114;13.914;2023-07-31T19:52:46;97944.56;;;21.36;82.41
18678;BME280;9469;51.114;13.914;2023-07-31T19:57:54;97923.69;;;21.33;82.34
18678;BME280;9469;51.114;13.914;2023-07-31T20:02:59;97914.06;;;21.32;81.94
18678;BME280;9469;51.114;13.914;2023-07-31T20:08:05;97905.94;;;21.32;82.21
18678;BME280;9469;51.114;13.914;2023-07-31T20:13:12;97897.47;;;21.23;82.45
18678;BME280;9469;51.114;13.914;2023-07-31T20:18:19;97885.09;;;21.22;82.71
18678;BME280;9469;51.114;13.914;2023-07-31T20:23:25;97887.00;;;21.21;82.89
18678;BME280;9469;51.114;13.914;2023-07-31T20:28:46;97877.34;;;21.17;83.15
18678;BME280;9469;51.114;13.914;2023-07-31T20:33:51;97875.44;;;21.17;83.55
18678;BME280;9469;51.114;13.914;2023-07-31T20:38:58;97872.75;;;21.10;84.44
18678;BME280;9469;51.114;13.914;2023-07-31T20:44:06;97857.69;;;21.09;84.88
18678;BME280;9469;51.114;13.914;2023-07-31T20:49:11;97850.72;;;20.98;85.36
18678;BME280;9469;51.114;13.914;2023-07-31T20:54:16;97848.78;;;20.95;85.24
18678;BME280;9469;51.114;13.914;2023-07-31T20:59:25;97846.09;;;20.95;85.66
18678;BME280;9469;51.114;13.914;2023-07-31T21:04:30;97838.38;;;20.86;85.32
18678;BME280;9469;51.114;13.914;2023-07-31T21:09:38;97814.06;;;20.86;85.82
18678;BME280;9469;51.114;13.914;2023-07-31T21:14:48;97811.75;;;20.78;86.28
18678;BME280;9469;51.114;13.914;2023-07-31T21:19:53;97815.63;;;20.66;86.22
18678;BME280;9469;51.114;13.914;2023-07-31T21:24:58;97805.97;;;20.65;86.21
18678;BME280;9469;51.114;13.914;2023-07-31T21:30:08;97802.13;;;20.62;85.55
18678;BME280;9469;51.114;13.914;2023-07-31T21:35:13;97788.63;;;20.62;85.70
18678;BME280;9469;51.114;13.914;2023-07-31T21:40:19;97791.69;;;20.61;85.62
18678;BME280;9469;51.114;13.914;2023-07-31T21:45:27;97795.94;;;20.62;85.42
18678;BME280;9469;51.114;13.914;2023-07-31T21:50:33;97781.66;;;20.47;86.35
18678;BME280;9469;51.114;13.914;2023-07-31T21:55:38;97779.34;;;20.53;85.97
18678;BME280;9469;51.114;13.914;2023-07-31T22:00:46;97783.59;;;20.50;85.76
18678;BME280;9469;51.114;13.914;2023-07-31T22:05:51;97772.41;;;20.48;85.98
18678;BME280;9469;51.114;13.914;2023-07-31T22:10:56;97767.38;;;20.47;85.58
18678;BME280;9469;51.114;13.914;2023-07-31T22:16:04;97777.81;;;20.48;85.85
18678;BME280;9469;51.114;13.914;2023-07-31T22:21:12;97769.72;;;20.48;85.15
18678;BME280;9469;51.114;13.914;2023-07-31T22:26:20;97766.63;;;20.53;85.28
18678;BME280;9469;51.114;13.914;2023-07-31T22:31:29;97754.25;;;20.59;85.09
18678;BME280;9469;51.114;13.914;2023-07-31T22:36:35;97751.56;;;20.52;85.30
18678;BME280;9469;51.114;13.914;2023-07-31T22:41:41;97749.63;;;20.56;84.75
18678;BME280;9469;51.114;13.914;2023-07-31T22:46:49;97754.66;;;20.54;87.86
18678;BME280;9469;51.114;13.914;2023-07-31T22:51:54;97742.31;;;20.25;91.27
18678;BME280;9469;51.114;13.914;2023-07-31T22:57:00;97745.41;;;20.27;92.86
18678;BME280;9469;51.114;13.914;2023-07-31T23:02:08;97733.03;;;20.09;93.08
18678;BME280;9469;51.114;13.914;2023-07-31T23:07:14;97729.16;;;20.06;93.08
18678;BME280;9469;51.114;13.914;2023-07-31T23:12:20;97727.63;;;20.01;92.33
18678;BME280;9469;51.114;13.914;2023-07-31T23:17:27;97723.38;;;20.04;93.69
18678;BME280;9469;51.114;13.914;2023-07-31T23:22:33;97714.50;;;20.00;94.50
18678;BME280;9469;51.114;13.914;2023-07-31T23:27:40;97706.78;;;19.95;95.32
18678;BME280;9469;51.114;13.914;2023-07-31T23:32:50;97697.53;;;19.92;95.18
18678;BME280;9469;51.114;13.914;2023-07-31T23:37:55;97692.53;;;19.98;96.31
18678;BME280;9469;51.114;13.914;2023-07-31T23:43:00;97683.28;;;19.95;96.22
18678;BME280;9469;51.114;13.914;2023-07-31T23:48:08;97676.72;;;20.11;97.90
18678;BME280;9469;51.114;13.914;2023-07-31T23:53:13;97662.06;;;19.73;99.62
18678;BME280;9469;51.114;13.914;2023-07-31T23:58:19;97662.84;;;19.63;99.78
